sensor_id;sensor_type;location;lat;lon;timestamp;P1;durP1;ratioP1;P2;durP2;ratioP2
13951;SDS011;39535;52.192;9.886;2023-02-28T00:01:08;2.17;;;1.93;;
13951;SDS011;39535;52.192;9.886;2023-02-28T00:03:35;3.67;;;2.07;;
13951;SDS011;39535;52.192;9.886;2023-02-28T00:06:01;1.60;;;1.50;;
13951;SDS011;39535;52.192;9.886;2023-02-28T00:08:28;2.33;;;1.80;;
13951;SDS011;39535;52.192;9.886;2023-02-28T00:10:55;1.80;;;1.70;;
13951;SDS011;39535;52.192;9.886;2023-02-28T00:13:22;2.20;;;2.00;;
13951;SDS011;39535;52.192;9.886;2023-02-28T00:15:57;1.80;;;1.70;;
13951;SDS011;39535;52.192;9.886;2023-02-28T00:18:24;2.20;;;1.83;;
13951;SDS011;39535;52.192;9.886;2023-02-28T00:20:51;2.33;;;2.13;;
13951;SDS011;39535;52.192;9.886;2023-02-28T00:23:17;2.07;;;1.90;;
13951;SDS011;39535;52.192;9.886;2023-02-28T00:25:43;1.97;;;1.87;;
13951;SDS011;39535;52.192;9.886;2023-02-28T00:28:10;3.07;;;2.57;;
13951;SDS011;39535;52.192;9.886;2023-02-28T00:30:38;2.70;;;2.50;;
13951;SDS011;39535;52.192;9.886;2023-02-28T00:33:05;3.83;;;2.53;;
13951;SDS011;39535;52.192;9.886;2023-02-28T00:35:31;2.67;;;2.30;;
13951;SDS011;39535;52.192;9.886;2023-02-28T00:37:57;2.50;;;2.30;;
13951;SDS011;39535;52.192;9.886;2023-02-28T00:40:24;3.90;;;2.80;;
13951;SDS011;39535;52.192;9.886;2023-02-28T00:42:50;2.20;;;2.00;;
13951;SDS011;39535;52.192;9.886;2023-02-28T00:45:16;3.67;;;2.70;;
13951;SDS011;39535;52.192;9.886;2023-02-28T00:47:44;2.60;;;2.40;;
13951;SDS011;39535;52.192;9.886;2023-02-28T00:50:11;5.37;;;2.67;;
13951;SDS011;39535;52.192;9.886;2023-02-28T00:52:38;2.33;;;2.10;;
13951;SDS011;39535;52.192;9.886;2023-02-28T00:55:04;3.07;;;2.40;;
13951;SDS011;39535;52.192;9.886;2023-02-28T00:57:31;2.77;;;1.93;;
13951;SDS011;39535;52.192;9.886;2023-02-28T00:59:57;1.80;;;1.70;;
13951;SDS011;39535;52.192;9.886;2023-02-28T01:02:23;2.40;;;2.20;;
13951;SDS011;39535;52.192;9.886;2023-02-28T01:04:51;3.30;;;2.17;;
13951;SDS011;39535;52.192;9.886;2023-02-28T01:07:17;1.50;;;1.40;;
13951;SDS011;39535;52.192;9.886;2023-02-28T01:09:44;2.80;;;2.07;;
13951;SDS011;39535;52.192;9.886;2023-02-28T01:12:10;2.23;;;1.57;;
13951;SDS011;39535;52.192;9.886;2023-02-28T01:14:37;2.00;;;1.80;;
13951;SDS011;39535;52.192;9.886;2023-02-28T01:17:03;1.70;;;1.60;;
13951;SDS011;39535;52.192;9.886;2023-02-28T01:19:30;2.63;;;2.43;;
13951;SDS011;39535;52.192;9.886;2023-02-28T01:21:57;2.47;;;2.27;;
13951;SDS011;39535;52.192;9.886;2023-02-28T01:24:26;2.97;;;2.77;;
13951;SDS011;39535;52.192;9.886;2023-02-28T01:26:52;3.00;;;2.70;;
13951;SDS011;39535;52.192;9.886;2023-02-28T01:29:19;3.40;;;3.10;;
13951;SDS011;39535;52.192;9.886;2023-02-28T01:31:45;3.33;;;3.03;;
13951;SDS011;39535;52.192;9.886;2023-02-28T01:34:11;3.63;;;3.23;;
13951;SDS011;39535;52.192;9.886;2023-02-28T01:36:38;3.20;;;2.93;;
13951;SDS011;39535;52.192;9.886;2023-02-28T01:39:05;3.73;;;2.97;;
13951;SDS011;39535;52.192;9.886;2023-02-28T01:41:33;3.77;;;3.47;;
13951;SDS011;39535;52.192;9.886;2023-02-28T01:44:01;4.13;;;3.30;;
13951;SDS011;39535;52.192;9.886;2023-02-28T01:46:31;3.50;;;2.80;;
13951;SDS011;39535;52.192;9.886;2023-02-28T01:49:00;3.20;;;3.00;;
13951;SDS011;39535;52.192;9.886;2023-02-28T01:51:32;3.30;;;3.00;;
13951;SDS011;39535;52.192;9.886;2023-02-28T01:54:03;3.20;;;2.90;;
13951;SDS011;39535;52.192;9.886;2023-02-28T01:56:38;3.03;;;2.73;;
13951;SDS011;39535;52.192;9.886;2023-02-28T01:59:10;3.57;;;3.27;;
13951;SDS011;39535;52.192;9.886;2023-02-28T02:01:40;3.90;;;3.17;;
13951;SDS011;39535;52.192;9.886;2023-02-28T02:04:06;3.57;;;3.27;;
13951;SDS011;39535;52.192;9.886;2023-02-28T02:06:34;3.53;;;3.00;;
13951;SDS011;39535;52.192;9.886;2023-02-28T02:09:03;6.13;;;3.27;;
13951;SDS011;39535;52.192;9.886;2023-02-28T02:11:31;3.43;;;3.03;;
13951;SDS011;39535;52.192;9.886;2023-02-28T02:14:05;3.90;;;3.23;;
13951;SDS011;39535;52.192;9.886;2023-02-28T02:16:41;3.80;;;3.07;;
13951;SDS011;39535;52.192;9.886;2023-02-28T02:19:26;3.30;;;3.00;;
13951;SDS011;39535;52.192;9.886;2023-02-28T02:22:21;3.63;;;2.73;;
13951;SDS011;39535;52.192;9.886;2023-02-28T02:25:13;2.83;;;2.53;;
13951;SDS011;39535;52.192;9.886;2023-02-28T02:27:57;3.20;;;2.67;;
13951;SDS011;39535;52.192;9.886;2023-02-28T02:30:58;3.67;;;2.40;;
13951;SDS011;39535;52.192;9.886;2023-02-28T02:36:32;2.20;;;2.00;;
13951;SDS011;39535;52.192;9.886;2023-02-28T02:39:06;3.47;;;2.57;;
13951;SDS011;39535;52.192;9.886;2023-02-28T02:41:39;3.90;;;2.40;;
13951;SDS011;39535;52.192;9.886;2023-02-28T02:44:13;2.90;;;2.60;;
13951;SDS011;39535;52.192;9.886;2023-02-28T02:46:47;3.50;;;3.20;;
13951;SDS011;39535;52.192;9.886;2023-02-28T02:49:19;3.90;;;2.60;;
13951;SDS011;39535;52.192;9.886;2023-02-28T02:51:47;3.13;;;2.70;;
13951;SDS011;39535;52.192;9.886;2023-02-28T02:54:16;3.37;;;3.07;;
13951;SDS011;39535;52.192;9.886;2023-02-28T02:56:46;3.80;;;3.17;;
13951;SDS011;39535;52.192;9.886;2023-02-28T02:59:15;3.23;;;2.93;;
13951;SDS011;39535;52.192;9.886;2023-02-28T03:01:46;4.00;;;3.50;;
13951;SDS011;39535;52.192;9.886;2023-02-28T03:04:18;3.97;;;3.67;;
13951;SDS011;39535;52.192;9.886;2023-02-28T03:06:46;3.97;;;3.67;;
13951;SDS011;39535;52.192;9.886;2023-02-28T03:09:13;4.13;;;3.83;;
13951;SDS011;39535;52.192;9.886;2023-02-28T03:11:40;6.73;;;4.50;;
13951;SDS011;39535;52.192;9.886;2023-02-28T03:14:14;4.80;;;4.40;;
13951;SDS011;39535;52.192;9.886;2023-02-28T03:16:57;6.80;;;3.97;;
13951;SDS011;39535;52.192;9.886;2023-02-28T03:19:36;3.40;;;2.97;;
13951;SDS011;39535;52.192;9.886;2023-02-28T03:22:13;4.33;;;3.57;;
13951;SDS011;39535;52.192;9.886;2023-02-28T03:24:48;3.43;;;3.13;;
13951;SDS011;39535;52.192;9.886;2023-02-28T03:27:21;3.43;;;3.07;;
13951;SDS011;39535;52.192;9.886;2023-02-28T03:29:55;3.60;;;3.30;;
13951;SDS011;39535;52.192;9.886;2023-02-28T03:32:26;4.20;;;3.53;;
13951;SDS011;39535;52.192;9.886;2023-02-28T03:35:00;5.03;;;4.53;;
13951;SDS011;39535;52.192;9.886;2023-02-28T03:37:31;4.20;;;3.90;;
13951;SDS011;39535;52.192;9.886;2023-02-28T03:40:02;4.53;;;4.13;;
13951;SDS011;39535;52.192;9.886;2023-02-28T03:42:35;5.07;;;4.33;;
13951;SDS011;39535;52.192;9.886;2023-02-28T03:45:04;4.70;;;4.30;;
13951;SDS011;39535;52.192;9.886;2023-02-28T03:47:37;4.60;;;4.20;;
13951;SDS011;39535;52.192;9.886;2023-02-28T03:50:10;6.47;;;5.23;;
13951;SDS011;39535;52.192;9.886;2023-02-28T03:52:44;4.73;;;4.30;;
13951;SDS011;39535;52.192;9.886;2023-02-28T03:55:14;4.97;;;4.50;;
13951;SDS011;39535;52.192;9.886;2023-02-28T03:57:44;5.00;;;4.60;;
13951;SDS011;39535;52.192;9.886;2023-02-28T04:00:27;5.10;;;4.70;;
13951;SDS011;39535;52.192;9.886;2023-02-28T04:02:57;5.10;;;4.57;;
13951;SDS011;39535;52.192;9.886;2023-02-28T04:05:25;5.70;;;5.07;;
13951;SDS011;39535;52.192;9.886;2023-02-28T04:07:53;4.47;;;4.07;;
13951;SDS011;39535;52.192;9.886;2023-02-28T04:10:20;5.03;;;4.63;;
13951;SDS011;39535;52.192;9.886;2023-02-28T04:12:46;4.87;;;4.40;;
13951;SDS011;39535;52.192;9.886;2023-02-28T04:15:12;4.90;;;4.50;;
13951;SDS011;39535;52.192;9.886;2023-02-28T04:17:39;4.00;;;3.50;;
13951;SDS011;39535;52.192;9.886;2023-02-28T04:20:06;4.03;;;3.70;;
13951;SDS011;39535;52.192;9.886;2023-02-28T04:22:36;4.93;;;3.30;;
13951;SDS011;39535;52.192;9.886;2023-02-28T04:25:03;6.20;;;3.63;;
13951;SDS011;39535;52.192;9.886;2023-02-28T04:27:31;3.63;;;3.33;;
13951;SDS011;39535;52.192;9.886;2023-02-28T04:29:57;4.47;;;4.10;;
13951;SDS011;39535;52.192;9.886;2023-02-28T04:32:23;4.13;;;3.60;;
13951;SDS011;39535;52.192;9.886;2023-02-28T04:34:50;4.13;;;3.40;;
13951;SDS011;39535;52.192;9.886;2023-02-28T04:37:16;3.50;;;3.20;;
13951;SDS011;39535;52.192;9.886;2023-02-28T04:39:44;3.90;;;3.60;;
13951;SDS011;39535;52.192;9.886;2023-02-28T04:42:10;3.90;;;3.50;;
13951;SDS011;39535;52.192;9.886;2023-02-28T04:44:38;4.80;;;3.63;;
13951;SDS011;39535;52.192;9.886;2023-02-28T04:47:04;3.70;;;3.27;;
13951;SDS011;39535;52.192;9.886;2023-02-28T04:49:31;3.47;;;3.27;;
13951;SDS011;39535;52.192;9.886;2023-02-28T04:51:57;3.80;;;3.50;;
13951;SDS011;39535;52.192;9.886;2023-02-28T04:54:23;3.73;;;3.43;;
13951;SDS011;39535;52.192;9.886;2023-02-28T04:56:51;4.43;;;3.50;;
13951;SDS011;39535;52.192;9.886;2023-02-28T04:59:17;4.00;;;3.67;;
13951;SDS011;39535;52.192;9.886;2023-02-28T05:01:45;3.77;;;3.47;;
13951;SDS011;39535;52.192;9.886;2023-02-28T05:04:12;3.53;;;3.23;;
13951;SDS011;39535;52.192;9.886;2023-02-28T05:06:39;3.70;;;3.40;;
13951;SDS011;39535;52.192;9.886;2023-02-28T05:09:05;4.70;;;4.17;;
13951;SDS011;39535;52.192;9.886;2023-02-28T05:11:32;5.30;;;3.80;;
13951;SDS011;39535;52.192;9.886;2023-02-28T05:14:01;4.30;;;4.00;;
13951;SDS011;39535;52.192;9.886;2023-02-28T05:16:28;4.77;;;4.30;;
13951;SDS011;39535;52.192;9.886;2023-02-28T05:18:54;4.60;;;4.10;;
13951;SDS011;39535;52.192;9.886;2023-02-28T05:21:22;5.07;;;4.67;;
13951;SDS011;39535;52.192;9.886;2023-02-28T05:23:51;4.60;;;4.20;;
13951;SDS011;39535;52.192;9.886;2023-02-28T05:26:18;5.00;;;4.60;;
13951;SDS011;39535;52.192;9.886;2023-02-28T05:28:44;4.90;;;4.40;;
13951;SDS011;39535;52.192;9.886;2023-02-28T05:31:12;4.67;;;4.27;;
13951;SDS011;39535;52.192;9.886;2023-02-28T05:33:39;5.67;;;4.63;;
13951;SDS011;39535;52.192;9.886;2023-02-28T05:36:06;5.93;;;5.40;;
13951;SDS011;39535;52.192;9.886;2023-02-28T05:38:32;5.30;;;4.80;;
13951;SDS011;39535;52.192;9.886;2023-02-28T05:40:59;5.27;;;4.73;;
13951;SDS011;39535;52.192;9.886;2023-02-28T05:43:25;7.53;;;5.13;;
13951;SDS011;39535;52.192;9.886;2023-02-28T05:45:52;6.53;;;4.50;;
13951;SDS011;39535;52.192;9.886;2023-02-28T05:48:19;4.93;;;4.50;;
13951;SDS011;39535;52.192;9.886;2023-02-28T05:50:46;5.23;;;4.83;;
13951;SDS011;39535;52.192;9.886;2023-02-28T05:53:12;5.00;;;4.50;;
13951;SDS011;39535;52.192;9.886;2023-02-28T05:55:38;5.10;;;4.70;;
13951;SDS011;39535;52.192;9.886;2023-02-28T05:58:06;4.77;;;4.37;;
13951;SDS011;39535;52.192;9.886;2023-02-28T06:00:32;5.33;;;4.90;;
13951;SDS011;39535;52.192;9.886;2023-02-28T06:02:58;5.53;;;4.70;;
13951;SDS011;39535;52.192;9.886;2023-02-28T06:05:28;6.23;;;5.60;;
13951;SDS011;39535;52.192;9.886;2023-02-28T06:07:54;6.97;;;5.10;;
13951;SDS011;39535;52.192;9.886;2023-02-28T06:10:20;6.00;;;5.50;;
13951;SDS011;39535;52.192;9.886;2023-02-28T06:12:47;6.07;;;5.67;;
13951;SDS011;39535;52.192;9.886;2023-02-28T06:15:13;6.07;;;5.47;;
13951;SDS011;39535;52.192;9.886;2023-02-28T06:17:41;5.27;;;4.77;;
13951;SDS011;39535;52.192;9.886;2023-02-28T06:20:09;5.63;;;4.83;;
13951;SDS011;39535;52.192;9.886;2023-02-28T06:22:39;6.47;;;5.33;;
13951;SDS011;39535;52.192;9.886;2023-02-28T06:25:06;7.10;;;5.60;;
13951;SDS011;39535;52.192;9.886;2023-02-28T06:27:33;5.57;;;5.07;;
13951;SDS011;39535;52.192;9.886;2023-02-28T06:30:00;5.60;;;5.10;;
13951;SDS011;39535;52.192;9.886;2023-02-28T06:32:26;7.03;;;5.27;;
13951;SDS011;39535;52.192;9.886;2023-02-28T06:34:52;6.10;;;5.53;;
13951;SDS011;39535;52.192;9.886;2023-02-28T06:37:19;6.13;;;5.63;;
13951;SDS011;39535;52.192;9.886;2023-02-28T06:39:46;6.20;;;5.60;;
13951;SDS011;39535;52.192;9.886;2023-02-28T06:42:13;5.80;;;5.23;;
13951;SDS011;39535;52.192;9.886;2023-02-28T06:44:39;6.37;;;5.83;;
13951;SDS011;39535;52.192;9.886;2023-02-28T06:47:07;6.37;;;5.80;;
13951;SDS011;39535;52.192;9.886;2023-02-28T06:49:34;6.03;;;5.53;;
13951;SDS011;39535;52.192;9.886;2023-02-28T06:52:02;6.20;;;5.70;;
13951;SDS011;39535;52.192;9.886;2023-02-28T06:54:28;6.30;;;5.70;;
13951;SDS011;39535;52.192;9.886;2023-02-28T06:56:56;5.87;;;5.37;;
13951;SDS011;39535;52.192;9.886;2023-02-28T06:59:23;5.33;;;4.93;;
13951;SDS011;39535;52.192;9.886;2023-02-28T07:01:49;6.40;;;5.90;;
13951;SDS011;39535;52.192;9.886;2023-02-28T07:04:16;5.87;;;5.37;;
13951;SDS011;39535;52.192;9.886;2023-02-28T07:06:43;5.87;;;5.30;;
13951;SDS011;39535;52.192;9.886;2023-02-28T07:09:09;5.57;;;4.93;;
13951;SDS011;39535;52.192;9.886;2023-02-28T07:11:36;5.63;;;5.13;;
13951;SDS011;39535;52.192;9.886;2023-02-28T07:14:03;5.07;;;4.67;;
13951;SDS011;39535;52.192;9.886;2023-02-28T07:16:30;5.87;;;5.17;;
13951;SDS011;39535;52.192;9.886;2023-02-28T07:18:56;7.63;;;6.30;;
13951;SDS011;39535;52.192;9.886;2023-02-28T07:21:23;6.57;;;5.97;;
13951;SDS011;39535;52.192;9.886;2023-02-28T07:23:49;5.93;;;5.33;;
13951;SDS011;39535;52.192;9.886;2023-02-28T07:26:16;6.37;;;5.77;;
13951;SDS011;39535;52.192;9.886;2023-02-28T07:28:45;7.10;;;6.47;;
13951;SDS011;39535;52.192;9.886;2023-02-28T07:31:14;7.70;;;7.10;;
13951;SDS011;39535;52.192;9.886;2023-02-28T07:33:41;8.63;;;7.83;;
13951;SDS011;39535;52.192;9.886;2023-02-28T07:36:09;8.30;;;7.60;;
13951;SDS011;39535;52.192;9.886;2023-02-28T07:38:40;8.13;;;7.33;;
13951;SDS011;39535;52.192;9.886;2023-02-28T07:41:07;9.50;;;7.00;;
13951;SDS011;39535;52.192;9.886;2023-02-28T07:43:34;7.93;;;7.23;;
13951;SDS011;39535;52.192;9.886;2023-02-28T07:46:01;7.87;;;7.17;;
13951;SDS011;39535;52.192;9.886;2023-02-28T07:48:30;7.30;;;6.70;;
13951;SDS011;39535;52.192;9.886;2023-02-28T07:50:56;7.67;;;7.00;;
13951;SDS011;39535;52.192;9.886;2023-02-28T07:53:22;8.13;;;7.43;;
13951;SDS011;39535;52.192;9.886;2023-02-28T07:55:49;7.73;;;6.93;;
13951;SDS011;39535;52.192;9.886;2023-02-28T07:58:15;9.30;;;6.73;;
13951;SDS011;39535;52.192;9.886;2023-02-28T08:00:41;8.70;;;7.50;;
13951;SDS011;39535;52.192;9.886;2023-02-28T08:03:08;10.33;;;7.37;;
13951;SDS011;39535;52.192;9.886;2023-02-28T08:05:39;8.53;;;7.53;;
13951;SDS011;39535;52.192;9.886;2023-02-28T08:08:06;15.17;;;8.07;;
13951;SDS011;39535;52.192;9.886;2023-02-28T08:10:32;12.37;;;10.83;;
13951;SDS011;39535;52.192;9.886;2023-02-28T08:12:59;10.03;;;8.63;;
13951;SDS011;39535;52.192;9.886;2023-02-28T08:15:25;9.33;;;8.43;;
13951;SDS011;39535;52.192;9.886;2023-02-28T08:17:52;7.47;;;6.77;;
13951;SDS011;39535;52.192;9.886;2023-02-28T08:20:18;7.40;;;6.70;;
13951;SDS011;39535;52.192;9.886;2023-02-28T08:22:46;6.63;;;5.70;;
13951;SDS011;39535;52.192;9.886;2023-02-28T08:25:12;7.03;;;6.43;;
13951;SDS011;39535;52.192;9.886;2023-02-28T08:27:39;6.80;;;6.03;;
13951;SDS011;39535;52.192;9.886;2023-02-28T08:30:06;6.93;;;6.23;;
13951;SDS011;39535;52.192;9.886;2023-02-28T08:32:33;7.30;;;6.13;;
13951;SDS011;39535;52.192;9.886;2023-02-28T08:35:00;7.27;;;6.60;;
13951;SDS011;39535;52.192;9.886;2023-02-28T08:37:28;6.97;;;5.97;;
13951;SDS011;39535;52.192;9.886;2023-02-28T08:39:55;6.10;;;5.60;;
13951;SDS011;39535;52.192;9.886;2023-02-28T08:42:22;6.33;;;5.73;;
13951;SDS011;39535;52.192;9.886;2023-02-28T08:44:48;6.07;;;5.47;;
13951;SDS011;39535;52.192;9.886;2023-02-28T08:47:15;6.33;;;5.73;;
13951;SDS011;39535;52.192;9.886;2023-02-28T08:49:41;6.83;;;5.70;;
13951;SDS011;39535;52.192;9.886;2023-02-28T08:52:07;5.83;;;5.33;;
13951;SDS011;39535;52.192;9.886;2023-02-28T08:54:34;6.87;;;5.33;;
13951;SDS011;39535;52.192;9.886;2023-02-28T08:57:03;6.43;;;5.87;;
13951;SDS011;39535;52.192;9.886;2023-02-28T08:59:29;5.77;;;5.23;;
13951;SDS011;39535;52.192;9.886;2023-02-28T09:01:56;5.47;;;5.00;;
13951;SDS011;39535;52.192;9.886;2023-02-28T09:04:22;5.03;;;4.53;;
13951;SDS011;39535;52.192;9.886;2023-02-28T09:06:48;7.03;;;4.03;;
13951;SDS011;39535;52.192;9.886;2023-02-28T09:09:15;4.50;;;4.20;;
13951;SDS011;39535;52.192;9.886;2023-02-28T09:11:41;4.80;;;4.40;;
13951;SDS011;39535;52.192;9.886;2023-02-28T09:14:09;4.30;;;3.90;;
13951;SDS011;39535;52.192;9.886;2023-02-28T09:16:35;4.87;;;4.40;;
13951;SDS011;39535;52.192;9.886;2023-02-28T09:19:01;5.50;;;4.50;;
13951;SDS011;39535;52.192;9.886;2023-02-28T09:21:28;4.53;;;4.13;;
13951;SDS011;39535;52.192;9.886;2023-02-28T09:23:54;4.50;;;4.10;;
13951;SDS011;39535;52.192;9.886;2023-02-28T09:26:22;4.60;;;4.20;;
13951;SDS011;39535;52.192;9.886;2023-02-28T09:28:50;4.53;;;4.13;;
13951;SDS011;39535;52.192;9.886;2023-02-28T09:31:19;3.53;;;3.23;;
13951;SDS011;39535;52.192;9.886;2023-02-28T09:33:47;4.20;;;3.87;;
13951;SDS011;39535;52.192;9.886;2023-02-28T09:36:13;4.10;;;3.70;;
13951;SDS011;39535;52.192;9.886;2023-02-28T09:38:40;4.63;;;4.23;;
13951;SDS011;39535;52.192;9.886;2023-02-28T09:41:10;4.27;;;3.87;;
13951;SDS011;39535;52.192;9.886;2023-02-28T09:43:40;4.20;;;3.80;;
13951;SDS011;39535;52.192;9.886;2023-02-28T09:46:12;3.67;;;3.37;;
13951;SDS011;39535;52.192;9.886;2023-02-28T09:48:47;5.47;;;3.70;;
13951;SDS011;39535;52.192;9.886;2023-02-28T09:51:20;3.77;;;3.47;;
13951;SDS011;39535;52.192;9.886;2023-02-28T09:53:55;3.17;;;2.90;;
13951;SDS011;39535;52.192;9.886;2023-02-28T09:56:22;8.17;;;3.37;;
13951;SDS011;39535;52.192;9.886;2023-02-28T09:58:53;4.00;;;3.10;;
13951;SDS011;39535;52.192;9.886;2023-02-28T10:01:25;2.60;;;2.40;;
13951;SDS011;39535;52.192;9.886;2023-02-28T10:03:57;3.07;;;2.77;;
13951;SDS011;39535;52.192;9.886;2023-02-28T10:06:28;3.67;;;2.47;;
13951;SDS011;39535;52.192;9.886;2023-02-28T10:08:57;2.77;;;2.57;;
13951;SDS011;39535;52.192;9.886;2023-02-28T10:11:27;2.87;;;2.67;;
13951;SDS011;39535;52.192;9.886;2023-02-28T10:13:56;2.77;;;2.40;;
13951;SDS011;39535;52.192;9.886;2023-02-28T10:16:32;4.20;;;2.47;;
13951;SDS011;39535;52.192;9.886;2023-02-28T10:19:03;3.43;;;2.27;;
13951;SDS011;39535;52.192;9.886;2023-02-28T10:21:34;6.33;;;3.57;;
13951;SDS011;39535;52.192;9.886;2023-02-28T10:24:03;3.63;;;3.33;;
13951;SDS011;39535;52.192;9.886;2023-02-28T10:26:37;3.40;;;3.10;;
13951;SDS011;39535;52.192;9.886;2023-02-28T10:29:03;2.90;;;2.70;;
13951;SDS011;39535;52.192;9.886;2023-02-28T10:31:29;3.10;;;2.80;;
13951;SDS011;39535;52.192;9.886;2023-02-28T10:33:57;4.63;;;3.30;;
13951;SDS011;39535;52.192;9.886;2023-02-28T10:36:23;4.13;;;3.10;;
13951;SDS011;39535;52.192;9.886;2023-02-28T10:38:50;5.10;;;3.23;;
13951;SDS011;39535;52.192;9.886;2023-02-28T10:41:26;3.13;;;2.73;;
13951;SDS011;39535;52.192;9.886;2023-02-28T10:43:54;3.27;;;2.87;;
13951;SDS011;39535;52.192;9.886;2023-02-28T10:46:40;3.27;;;3.07;;
13951;SDS011;39535;52.192;9.886;2023-02-28T10:49:12;3.07;;;2.77;;
13951;SDS011;39535;52.192;9.886;2023-02-28T10:51:43;3.77;;;3.20;;
13951;SDS011;39535;52.192;9.886;2023-02-28T10:54:14;4.27;;;3.30;;
13951;SDS011;39535;52.192;9.886;2023-02-28T10:56:42;4.97;;;4.13;;
13951;SDS011;39535;52.192;9.886;2023-02-28T10:59:22;3.33;;;3.10;;
13951;SDS011;39535;52.192;9.886;2023-02-28T11:01:54;4.63;;;3.00;;
13951;SDS011;39535;52.192;9.886;2023-02-28T11:04:31;3.33;;;3.03;;
13951;SDS011;39535;52.192;9.886;2023-02-28T11:07:03;4.90;;;2.83;;
13951;SDS011;39535;52.192;9.886;2023-02-28T11:09:32;3.50;;;3.20;;
13951;SDS011;39535;52.192;9.886;2023-02-28T11:12:00;3.57;;;3.10;;
13951;SDS011;39535;52.192;9.886;2023-02-28T11:14:30;3.53;;;2.93;;
13951;SDS011;39535;52.192;9.886;2023-02-28T11:17:03;3.30;;;3.00;;
13951;SDS011;39535;52.192;9.886;2023-02-28T11:19:41;4.00;;;2.37;;
13951;SDS011;39535;52.192;9.886;2023-02-28T11:22:16;4.93;;;3.30;;
13951;SDS011;39535;52.192;9.886;2023-02-28T11:24:45;4.17;;;3.53;;
13951;SDS011;39535;52.192;9.886;2023-02-28T11:27:25;4.20;;;3.40;;
13951;SDS011;39535;52.192;9.886;2023-02-28T11:30:12;7.07;;;3.77;;
13951;SDS011;39535;52.192;9.886;2023-02-28T11:32:51;3.37;;;2.83;;
13951;SDS011;39535;52.192;9.886;2023-02-28T11:35:18;2.90;;;2.43;;
13951;SDS011;39535;52.192;9.886;2023-02-28T11:37:49;3.23;;;2.87;;
13951;SDS011;39535;52.192;9.886;2023-02-28T11:40:16;3.10;;;2.80;;
13951;SDS011;39535;52.192;9.886;2023-02-28T11:42:47;4.00;;;2.70;;
13951;SDS011;39535;52.192;9.886;2023-02-28T11:45:22;4.00;;;2.50;;
13951;SDS011;39535;52.192;9.886;2023-02-28T11:48:04;3.53;;;3.10;;
13951;SDS011;39535;52.192;9.886;2023-02-28T11:50:42;2.80;;;2.60;;
13951;SDS011;39535;52.192;9.886;2023-02-28T11:53:18;2.40;;;2.20;;
13951;SDS011;39535;52.192;9.886;2023-02-28T11:55:49;2.77;;;2.57;;
13951;SDS011;39535;52.192;9.886;2023-02-28T11:58:23;3.00;;;2.53;;
13951;SDS011;39535;52.192;9.886;2023-02-28T12:04:09;5.07;;;2.40;;
13951;SDS011;39535;52.192;9.886;2023-02-28T12:06:44;2.83;;;2.60;;
13951;SDS011;39535;52.192;9.886;2023-02-28T12:09:23;2.47;;;2.27;;
13951;SDS011;39535;52.192;9.886;2023-02-28T12:12:02;2.27;;;2.07;;
13951;SDS011;39535;52.192;9.886;2023-02-28T12:14:46;2.77;;;2.17;;
13951;SDS011;39535;52.192;9.886;2023-02-28T12:17:22;2.13;;;1.70;;
13951;SDS011;39535;52.192;9.886;2023-02-28T12:20:02;3.73;;;2.13;;
13951;SDS011;39535;52.192;9.886;2023-02-28T12:22:35;2.70;;;1.70;;
13951;SDS011;39535;52.192;9.886;2023-02-28T12:25:24;2.67;;;1.90;;
13951;SDS011;39535;52.192;9.886;2023-02-28T12:28:14;1.83;;;1.70;;
13951;SDS011;39535;52.192;9.886;2023-02-28T12:30:46;2.37;;;1.90;;
13951;SDS011;39535;52.192;9.886;2023-02-28T12:33:20;2.00;;;1.90;;
13951;SDS011;39535;52.192;9.886;2023-02-28T12:35:52;2.90;;;2.00;;
13951;SDS011;39535;52.192;9.886;2023-02-28T12:38:22;2.27;;;1.93;;
13951;SDS011;39535;52.192;9.886;2023-02-28T12:40:52;2.33;;;2.10;;
13951;SDS011;39535;52.192;9.886;2023-02-28T12:43:22;2.10;;;1.93;;
13951;SDS011;39535;52.192;9.886;2023-02-28T12:45:57;2.13;;;1.80;;
13951;SDS011;39535;52.192;9.886;2023-02-28T12:48:27;3.93;;;2.00;;
13951;SDS011;39535;52.192;9.886;2023-02-28T12:51:04;2.67;;;1.50;;
13951;SDS011;39535;52.192;9.886;2023-02-28T12:53:35;2.27;;;1.97;;
13951;SDS011;39535;52.192;9.886;2023-02-28T12:56:13;2.50;;;1.93;;
13951;SDS011;39535;52.192;9.886;2023-02-28T12:58:45;2.10;;;2.00;;
13951;SDS011;39535;52.192;9.886;2023-02-28T13:01:22;1.80;;;1.70;;
13951;SDS011;39535;52.192;9.886;2023-02-28T13:04:05;2.50;;;2.30;;
13951;SDS011;39535;52.192;9.886;2023-02-28T13:06:54;1.77;;;1.67;;
13951;SDS011;39535;52.192;9.886;2023-02-28T13:09:36;2.53;;;1.70;;
13951;SDS011;39535;52.192;9.886;2023-02-28T13:12:07;1.50;;;1.40;;
13951;SDS011;39535;52.192;9.886;2023-02-28T13:14:39;1.90;;;1.80;;
13951;SDS011;39535;52.192;9.886;2023-02-28T13:17:10;2.60;;;2.10;;
13951;SDS011;39535;52.192;9.886;2023-02-28T13:19:39;2.97;;;2.40;;
13951;SDS011;39535;52.192;9.886;2023-02-28T13:22:17;3.87;;;3.40;;
13951;SDS011;39535;52.192;9.886;2023-02-28T13:24:46;2.20;;;2.10;;
13951;SDS011;39535;52.192;9.886;2023-02-28T13:30:00;2.47;;;2.27;;
13951;SDS011;39535;52.192;9.886;2023-02-28T13:35:13;2.90;;;2.20;;
13951;SDS011;39535;52.192;9.886;2023-02-28T13:38:17;2.33;;;2.13;;
13951;SDS011;39535;52.192;9.886;2023-02-28T13:44:01;7.27;;;2.30;;
13951;SDS011;39535;52.192;9.886;2023-02-28T13:46:30;2.23;;;2.03;;
13951;SDS011;39535;52.192;9.886;2023-02-28T13:49:14;2.53;;;2.13;;
13951;SDS011;39535;52.192;9.886;2023-02-28T13:51:45;2.80;;;2.50;;
13951;SDS011;39535;52.192;9.886;2023-02-28T13:54:26;2.50;;;2.30;;
13951;SDS011;39535;52.192;9.886;2023-02-28T13:57:09;2.60;;;2.40;;
13951;SDS011;39535;52.192;9.886;2023-02-28T13:59:49;4.80;;;2.50;;
13951;SDS011;39535;52.192;9.886;2023-02-28T14:02:37;3.03;;;2.23;;
13951;SDS011;39535;52.192;9.886;2023-02-28T14:05:13;2.50;;;2.07;;
13951;SDS011;39535;52.192;9.886;2023-02-28T14:07:43;2.90;;;2.60;;
13951;SDS011;39535;52.192;9.886;2023-02-28T14:10:21;2.50;;;2.30;;
13951;SDS011;39535;52.192;9.886;2023-02-28T14:12:53;3.87;;;2.70;;
13951;SDS011;39535;52.192;9.886;2023-02-28T14:18:16;2.87;;;2.20;;
13951;SDS011;39535;52.192;9.886;2023-02-28T14:20:47;3.27;;;2.40;;
13951;SDS011;39535;52.192;9.886;2023-02-28T14:23:16;3.40;;;3.20;;
13951;SDS011;39535;52.192;9.886;2023-02-28T14:26:00;2.67;;;2.47;;
13951;SDS011;39535;52.192;9.886;2023-02-28T14:28:38;2.50;;;2.30;;
13951;SDS011;39535;52.192;9.886;2023-02-28T14:31:15;2.53;;;2.23;;
13951;SDS011;39535;52.192;9.886;2023-02-28T14:34:02;2.40;;;2.20;;
13951;SDS011;39535;52.192;9.886;2023-02-28T14:36:40;2.10;;;2.00;;
13951;SDS011;39535;52.192;9.886;2023-02-28T14:39:10;2.30;;;2.10;;
13951;SDS011;39535;52.192;9.886;2023-02-28T14:41:41;2.47;;;2.23;;
13951;SDS011;39535;52.192;9.886;2023-02-28T14:44:13;2.30;;;2.13;;
13951;SDS011;39535;52.192;9.886;2023-02-28T14:46:41;2.63;;;2.20;;
13951;SDS011;39535;52.192;9.886;2023-02-28T14:49:12;2.47;;;2.27;;
13951;SDS011;39535;52.192;9.886;2023-02-28T14:51:43;2.90;;;2.10;;
13951;SDS011;39535;52.192;9.886;2023-02-28T14:54:12;2.30;;;2.10;;
13951;SDS011;39535;52.192;9.886;2023-02-28T14:56:42;2.27;;;2.03;;
13951;SDS011;39535;52.192;9.886;2023-02-28T14:59:22;2.90;;;2.37;;
13951;SDS011;39535;52.192;9.886;2023-02-28T15:01:50;3.40;;;2.70;;
13951;SDS011;39535;52.192;9.886;2023-02-28T15:04:18;2.80;;;2.60;;
13951;SDS011;39535;52.192;9.886;2023-02-28T15:09:35;2.40;;;2.20;;
13951;SDS011;39535;52.192;9.886;2023-02-28T15:12:03;2.03;;;1.93;;
13951;SDS011;39535;52.192;9.886;2023-02-28T15:14:29;2.40;;;2.20;;
13951;SDS011;39535;52.192;9.886;2023-02-28T15:16:57;2.60;;;2.40;;
13951;SDS011;39535;52.192;9.886;2023-02-28T15:19:28;3.03;;;2.60;;
13951;SDS011;39535;52.192;9.886;2023-02-28T15:21:58;3.30;;;2.57;;
13951;SDS011;39535;52.192;9.886;2023-02-28T15:24:33;2.90;;;2.70;;
13951;SDS011;39535;52.192;9.886;2023-02-28T15:27:05;2.50;;;2.30;;